createdAt,value
2022-09-15T00:00:31.498Z,87.00
2022-09-15T00:01:31.932Z,86.90
2022-09-15T00:02:31.748Z,86.79
2022-09-15T00:03:31.439Z,86.90
2022-09-15T00:04:31.432Z,87.10
2022-09-15T00:05:31.432Z,87.00
2022-09-15T00:06:31.421Z,87.00
2022-09-15T00:07:31.404Z,86.79
2022-09-15T00:08:31.389Z,87.00
2022-09-15T00:09:31.400Z,87.05
2022-09-15T00:10:31.403Z,86.90
2022-09-15T00:11:31.349Z,86.90
2022-09-15T00:12:31.342Z,86.90
2022-09-15T00:13:31.329Z,86.69
2022-09-15T00:14:31.356Z,86.76
2022-09-15T00:15:31.304Z,87.00
2022-09-15T00:16:31.385Z,87.46
2022-09-15T00:17:31.281Z,87.26
2022-09-15T00:18:31.271Z,87.30
2022-09-15T00:19:31.280Z,87.46
2022-09-15T00:20:31.253Z,87.51
2022-09-15T00:21:31.256Z,87.46
2022-09-15T00:22:31.227Z,87.91
2022-09-15T00:23:31.219Z,87.20
2022-09-15T00:24:31.203Z,87.91
2022-09-15T00:25:31.231Z,87.81
2022-09-15T00:26:31.184Z,88.01
2022-09-15T00:27:31.176Z,88.21
2022-09-15T00:28:31.159Z,88.21
2022-09-15T00:29:31.152Z,87.71
2022-09-15T00:30:31.202Z,88.21
2022-09-15T00:31:34.221Z,87.51
2022-09-15T00:32:31.124Z,88.31
2022-09-15T00:33:31.106Z,88.51
2022-09-15T00:34:31.087Z,88.21
2022-09-15T00:35:31.080Z,88.72
2022-09-15T00:36:31.093Z,88.42
2022-09-15T00:37:31.065Z,88.76
2022-09-15T00:38:31.057Z,88.56
2022-09-15T00:39:31.058Z,88.76
2022-09-15T00:40:31.109Z,89.06
2022-09-15T00:41:31.112Z,88.96
2022-09-15T00:42:31.001Z,88.86
2022-09-15T00:43:30.996Z,88.96
2022-09-15T00:44:30.978Z,88.96
2022-09-15T00:45:31.021Z,89.26
2022-09-15T00:46:34.466Z,89.17
2022-09-15T00:47:30.949Z,89.37
2022-09-15T00:48:30.938Z,89.17
2022-09-15T00:49:30.926Z,89.37
2022-09-15T00:50:30.986Z,88.96
2022-09-15T00:51:30.910Z,89.17
2022-09-15T00:52:30.891Z,89.37
2022-09-15T00:53:30.878Z,89.47
2022-09-15T00:54:30.866Z,89.47
2022-09-15T00:55:30.855Z,89.06
2022-09-15T00:56:30.866Z,89.47
2022-09-15T00:57:30.850Z,89.47
2022-09-15T00:58:30.816Z,89.77
2022-09-15T00:59:30.808Z,89.77
2022-09-15T01:00:30.797Z,89.72
2022-09-15T01:01:30.908Z,89.67
2022-09-15T01:02:30.840Z,89.67
2022-09-15T01:03:31.299Z,89.87
2022-09-15T01:04:30.749Z,90.02
2022-09-15T01:05:30.743Z,89.81
2022-09-15T01:06:30.746Z,89.61
2022-09-15T01:07:30.718Z,89.92
2022-09-15T01:08:30.703Z,90.53
2022-09-15T01:09:30.693Z,90.32
2022-09-15T01:10:30.691Z,90.62
2022-09-15T01:11:30.715Z,90.62
2022-09-15T01:12:30.656Z,90.53
2022-09-15T01:13:30.664Z,90.42
2022-09-15T01:14:30.637Z,90.42
2022-09-15T01:15:30.621Z,90.32
2022-09-15T01:16:30.653Z,90.42
2022-09-15T01:17:30.619Z,90.32
2022-09-15T01:18:31.299Z,90.53
2022-09-15T01:19:30.579Z,90.62
2022-09-15T01:20:30.567Z,90.83
2022-09-15T01:21:30.554Z,90.62
2022-09-15T01:22:33.045Z,90.97
2022-09-15T01:23:30.537Z,91.28
2022-09-15T01:24:30.516Z,91.48
2022-09-15T01:25:30.503Z,91.48
2022-09-15T01:26:30.493Z,91.38
2022-09-15T01:27:41.994Z,91.28
2022-09-15T01:28:31.468Z,91.28
2022-09-15T01:29:30.481Z,91.58
2022-09-15T01:30:30.449Z,91.48
2022-09-15T01:31:30.508Z,91.38
2022-09-15T01:32:30.451Z,91.58
2022-09-15T01:33:30.464Z,91.73
2022-09-15T01:34:30.405Z,92.03
2022-09-15T01:35:30.391Z,91.83
2022-09-15T01:36:30.382Z,92.03
2022-09-15T01:37:30.829Z,91.78
2022-09-15T01:38:30.360Z,91.93
2022-09-15T01:39:30.349Z,92.13
2022-09-15T01:40:30.417Z,92.03
2022-09-15T01:41:30.322Z,92.33
2022-09-15T01:42:30.330Z,92.54
2022-09-15T01:43:30.322Z,92.94
2022-09-15T01:44:30.290Z,92.84
2022-09-15T01:45:30.420Z,93.15
2022-09-15T01:46:30.263Z,93.15
2022-09-15T01:47:30.259Z,92.94
2022-09-15T01:48:30.241Z,92.84
2022-09-15T01:49:30.230Z,92.74
2022-09-15T01:50:30.805Z,92.94
2022-09-15T01:51:30.207Z,93.05
2022-09-15T01:52:30.211Z,93.55
2022-09-15T01:53:30.188Z,92.33
2022-09-15T01:54:30.198Z,93.15
2022-09-15T01:55:30.163Z,93.15
2022-09-15T01:56:30.152Z,93.35
2022-09-15T01:57:30.158Z,93.25
2022-09-15T01:58:30.156Z,93.05
2022-09-15T01:59:30.118Z,93.25
2022-09-15T02:00:30.108Z,92.99
2022-09-15T02:01:30.147Z,93.15
2022-09-15T02:02:30.162Z,93.19
2022-09-15T02:03:30.089Z,92.84
2022-09-15T02:04:30.060Z,92.99
2022-09-15T02:05:30.053Z,93.49
2022-09-15T02:06:30.042Z,93.19
2022-09-15T02:07:30.029Z,93.49
2022-09-15T02:08:30.033Z,93.60
2022-09-15T02:09:30.082Z,93.40
2022-09-15T02:10:30.000Z,93.49
2022-09-15T02:11:29.988Z,93.09
2022-09-15T02:12:29.976Z,93.60
2022-09-15T02:13:29.983Z,93.29
2022-09-15T02:14:29.950Z,93.40
2022-09-15T02:15:29.946Z,92.68
2022-09-15T02:16:29.987Z,93.49
2022-09-15T02:17:29.939Z,93.24
2022-09-15T02:18:29.917Z,93.19
2022-09-15T02:19:29.899Z,93.60
2022-09-15T02:20:29.890Z,93.49
2022-09-15T02:21:29.902Z,93.40
2022-09-15T02:22:30.121Z,93.40
2022-09-15T02:23:29.871Z,93.09
2022-09-15T02:24:29.846Z,92.99
2022-09-15T02:25:29.838Z,93.49
2022-09-15T02:26:30.013Z,93.60
2022-09-15T02:27:34.156Z,93.29
2022-09-15T02:28:29.803Z,93.40
2022-09-15T02:29:29.788Z,93.09
2022-09-15T02:30:29.779Z,93.15
2022-09-15T02:31:29.871Z,92.54
2022-09-15T02:32:29.753Z,92.74
2022-09-15T02:33:29.765Z,93.15
2022-09-15T02:34:29.731Z,92.44
2022-09-15T02:35:29.728Z,92.13
2022-09-15T02:36:29.739Z,91.93
2022-09-15T02:37:29.724Z,91.83
2022-09-15T02:38:29.694Z,91.93
2022-09-15T02:39:30.320Z,92.24
2022-09-15T02:40:29.778Z,91.83
2022-09-15T02:41:29.693Z,92.03
2022-09-15T02:42:29.645Z,92.33
2022-09-15T02:43:29.795Z,91.93
2022-09-15T02:44:29.629Z,92.74
2022-09-15T02:45:29.694Z,93.09
2022-09-15T02:46:29.612Z,93.60
2022-09-15T02:47:29.591Z,93.09
2022-09-15T02:48:29.586Z,93.40
2022-09-15T02:49:29.665Z,93.40
2022-09-15T02:50:29.556Z,93.13
2022-09-15T02:51:29.561Z,93.03
2022-09-15T02:52:29.545Z,93.49
2022-09-15T02:53:29.525Z,93.44
2022-09-15T02:54:29.516Z,93.33
2022-09-15T02:55:29.501Z,93.60
2022-09-15T02:56:29.490Z,93.64
2022-09-15T02:57:29.497Z,93.64
2022-09-15T02:58:29.475Z,93.33
2022-09-15T02:59:29.462Z,93.74
2022-09-15T03:00:29.516Z,94.05
2022-09-15T03:01:30.148Z,93.44
2022-09-15T03:02:29.907Z,93.80
2022-09-15T03:03:29.416Z,93.80
2022-09-15T03:04:29.405Z,93.44
2022-09-15T03:05:29.407Z,93.84
2022-09-15T03:06:29.390Z,93.44
2022-09-15T03:07:29.399Z,93.44
2022-09-15T03:08:29.401Z,93.84
2022-09-15T03:09:29.350Z,93.54
2022-09-15T03:10:29.336Z,94.05
2022-09-15T03:11:29.346Z,93.03
2022-09-15T03:12:29.317Z,94.05
2022-09-15T03:13:29.375Z,94.76
2022-09-15T03:14:29.288Z,93.84
2022-09-15T03:15:29.288Z,93.07
2022-09-15T03:16:29.362Z,93.59
2022-09-15T03:17:29.469Z,93.68
2022-09-15T03:18:29.278Z,94.09
2022-09-15T03:19:29.275Z,94.50
2022-09-15T03:20:29.223Z,94.40
2022-09-15T03:21:29.262Z,93.48
2022-09-15T03:22:29.291Z,94.09
2022-09-15T03:23:29.224Z,94.09
2022-09-15T03:24:29.218Z,93.68
2022-09-15T03:25:29.217Z,94.09
2022-09-15T03:26:29.158Z,93.89
2022-09-15T03:27:29.242Z,94.20
2022-09-15T03:28:29.159Z,93.89
2022-09-15T03:29:29.161Z,94.29
2022-09-15T03:30:29.157Z,94.29
2022-09-15T03:31:29.178Z,93.99
2022-09-15T03:32:29.101Z,94.09
2022-09-15T03:33:29.101Z,93.99
2022-09-15T03:34:29.088Z,94.09
2022-09-15T03:35:29.099Z,94.90
2022-09-15T03:36:29.090Z,94.90
2022-09-15T03:37:29.053Z,94.80
2022-09-15T03:38:29.116Z,94.20
2022-09-15T03:39:29.010Z,94.70
2022-09-15T03:40:29.059Z,94.90
2022-09-15T03:41:29.019Z,94.60
2022-09-15T03:42:28.976Z,94.60
2022-09-15T03:43:28.971Z,94.70
2022-09-15T03:44:28.960Z,94.70
2022-09-15T03:45:28.981Z,94.70
2022-09-15T03:46:28.930Z,94.90
2022-09-15T03:47:28.934Z,94.40
2022-09-15T03:48:28.911Z,94.80
2022-09-15T03:49:28.921Z,94.70
2022-09-15T03:50:28.908Z,94.80
2022-09-15T03:51:28.879Z,94.60
2022-09-15T03:52:28.864Z,94.60
2022-09-15T03:53:29.861Z,95.01
2022-09-15T03:54:28.843Z,95.01
2022-09-15T03:55:28.934Z,95.01
2022-09-15T03:56:28.816Z,94.90
2022-09-15T03:57:28.812Z,94.85
2022-09-15T03:58:30.798Z,95.15
2022-09-15T03:59:28.794Z,94.95
2022-09-15T04:00:28.837Z,95.05
2022-09-15T04:01:28.768Z,95.25
2022-09-15T04:02:28.774Z,95.15
2022-09-15T04:03:28.745Z,95.25
2022-09-15T04:04:28.735Z,95.15
2022-09-15T04:05:28.737Z,95.05
2022-09-15T04:06:28.746Z,95.05
2022-09-15T04:07:35.732Z,95.15
2022-09-15T04:08:28.690Z,95.05
2022-09-15T04:09:28.707Z,94.95
2022-09-15T04:10:28.707Z,95.05
2022-09-15T04:11:28.655Z,95.25
2022-09-15T04:12:28.900Z,94.95
2022-09-15T04:13:28.881Z,94.95
2022-09-15T04:14:28.665Z,95.25
2022-09-15T04:15:28.632Z,94.95
2022-09-15T04:16:28.692Z,95.25
2022-09-15T04:17:28.592Z,95.56
2022-09-15T04:18:28.576Z,95.36
2022-09-15T04:19:28.573Z,95.70
2022-09-15T04:20:28.564Z,95.66
2022-09-15T04:21:28.578Z,95.46
2022-09-15T04:22:28.553Z,95.70
2022-09-15T04:23:28.517Z,95.50
2022-09-15T04:24:28.521Z,95.66
2022-09-15T04:25:28.521Z,95.46
2022-09-15T04:26:32.410Z,95.76
2022-09-15T04:27:28.523Z,95.66
2022-09-15T04:28:28.464Z,95.86
2022-09-15T04:29:28.694Z,95.66
2022-09-15T04:30:28.477Z,95.66
2022-09-15T04:31:28.514Z,95.46
2022-09-15T04:32:29.483Z,95.46
2022-09-15T04:33:28.408Z,95.36
2022-09-15T04:34:28.400Z,95.86
2022-09-15T04:35:28.390Z,95.66
2022-09-15T04:36:28.531Z,95.86
2022-09-15T04:37:28.379Z,95.97
2022-09-15T04:38:28.364Z,95.46
2022-09-15T04:39:28.344Z,95.46
2022-09-15T04:40:28.441Z,95.25
2022-09-15T04:41:45.729Z,95.00
2022-09-15T04:42:28.310Z,95.25
2022-09-15T04:43:28.305Z,95.05
2022-09-15T04:44:28.282Z,95.15
2022-09-15T04:45:28.280Z,94.95
2022-09-15T04:46:28.383Z,95.05
2022-09-15T04:47:28.273Z,95.25
2022-09-15T04:48:28.251Z,95.25
2022-09-15T04:49:28.229Z,95.25
2022-09-15T04:50:28.216Z,95.15
2022-09-15T04:51:28.202Z,95.56
2022-09-15T04:52:28.217Z,95.56
2022-09-15T04:53:28.202Z,95.46
2022-09-15T04:54:28.175Z,95.76
2022-09-15T04:55:28.159Z,95.86
2022-09-15T04:56:28.191Z,95.86
2022-09-15T04:57:28.171Z,95.97
2022-09-15T04:58:28.125Z,95.86
2022-09-15T04:59:28.247Z,96.07
2022-09-15T05:00:28.117Z,96.01
2022-09-15T05:01:28.179Z,96.31
2022-09-15T05:02:30.144Z,96.27
2022-09-15T05:03:28.098Z,96.37
2022-09-15T05:04:28.077Z,96.27
2022-09-15T05:05:28.342Z,96.22
2022-09-15T05:06:28.040Z,96.31
2022-09-15T05:07:28.050Z,96.31
2022-09-15T05:08:28.016Z,96.27
2022-09-15T05:09:28.005Z,96.17
2022-09-15T05:10:28.001Z,96.37
2022-09-15T05:11:27.983Z,96.17
2022-09-15T05:12:27.969Z,96.47
2022-09-15T05:13:28.159Z,96.47
2022-09-15T05:14:27.952Z,96.47
2022-09-15T05:15:27.935Z,96.17
2022-09-15T05:16:28.980Z,95.36
2022-09-15T05:17:27.910Z,95.86
2022-09-15T05:18:27.919Z,95.36
2022-09-15T05:19:27.890Z,95.66
2022-09-15T05:20:27.973Z,95.56
2022-09-15T05:21:27.875Z,95.56
2022-09-15T05:22:27.928Z,95.56
2022-09-15T05:23:27.845Z,95.25
2022-09-15T05:24:27.833Z,95.15
2022-09-15T05:25:27.821Z,95.25
2022-09-15T05:26:27.811Z,95.05
2022-09-15T05:27:27.821Z,94.85
2022-09-15T05:28:27.830Z,94.95
2022-09-15T05:29:27.895Z,94.90
2022-09-15T05:30:44.557Z,94.60
2022-09-15T05:31:28.866Z,94.90
2022-09-15T05:32:27.772Z,94.85
2022-09-15T05:33:27.780Z,94.80
2022-09-15T05:34:27.729Z,94.70
2022-09-15T05:35:27.709Z,94.60
2022-09-15T05:36:27.704Z,94.95
2022-09-15T05:37:27.725Z,94.09
2022-09-15T05:38:27.682Z,94.29
2022-09-15T05:39:27.729Z,94.09
2022-09-15T05:40:27.685Z,93.89
2022-09-15T05:41:27.656Z,93.89
2022-09-15T05:42:27.658Z,93.68
2022-09-15T05:43:27.648Z,93.79
2022-09-15T05:44:27.610Z,93.84
2022-09-15T05:45:27.637Z,93.33
2022-09-15T05:46:27.701Z,93.19
2022-09-15T05:47:27.595Z,93.24
2022-09-15T05:48:27.571Z,92.28
2022-09-15T05:49:28.399Z,91.52
2022-09-15T05:50:27.570Z,90.47
2022-09-15T05:51:27.537Z,89.81
2022-09-15T05:52:27.550Z,89.06
2022-09-15T05:53:27.510Z,88.15
2022-09-15T05:54:28.373Z,87.20
2022-09-15T05:55:27.485Z,86.65
2022-09-15T05:56:27.535Z,86.31
2022-09-15T05:57:27.529Z,84.99
2022-09-15T05:58:27.458Z,84.55
2022-09-15T05:59:27.448Z,83.60
2022-09-15T06:00:27.521Z,82.14
2022-09-15T06:01:27.602Z,81.94
2022-09-15T06:02:27.454Z,81.50
2022-09-15T06:03:30.855Z,80.85
2022-09-15T06:04:27.399Z,80.01
2022-09-15T06:05:27.498Z,78.96
2022-09-15T06:06:27.373Z,77.72
2022-09-15T06:07:27.842Z,76.64
2022-09-15T06:08:27.361Z,75.39
2022-09-15T06:09:27.333Z,73.91
2022-09-15T06:10:27.371Z,73.24
2022-09-15T06:11:27.612Z,74.42
2022-09-15T06:12:27.296Z,75.02
2022-09-15T06:13:27.302Z,75.09
2022-09-15T06:14:27.283Z,73.44
2022-09-15T06:15:27.262Z,73.38
2022-09-15T06:16:27.411Z,73.82
2022-09-15T06:17:27.257Z,74.96
2022-09-15T06:18:27.234Z,75.10
2022-09-15T06:19:27.286Z,75.50
2022-09-15T06:20:27.406Z,75.40
2022-09-15T06:21:27.219Z,76.44
2022-09-15T06:22:27.232Z,76.78
2022-09-15T06:23:27.182Z,76.98
2022-09-15T06:24:27.196Z,75.96
2022-09-15T06:25:27.199Z,73.55
2022-09-15T06:26:27.181Z,73.04
2022-09-15T06:27:27.151Z,72.20
2022-09-15T06:28:27.444Z,70.56
2022-09-15T06:29:27.109Z,69.66
2022-09-15T06:30:27.122Z,68.02
2022-09-15T06:31:27.172Z,68.99
2022-09-15T06:32:27.079Z,69.76
2022-09-15T06:33:27.102Z,70.70
2022-09-15T06:34:27.064Z,70.36
2022-09-15T06:35:27.044Z,70.29
2022-09-15T06:36:27.035Z,70.06
2022-09-15T06:37:27.020Z,69.42
2022-09-15T06:38:27.440Z,69.42
2022-09-15T06:39:27.015Z,68.82
2022-09-15T06:40:27.272Z,69.25
2022-09-15T06:41:27.220Z,69.45
2022-09-15T06:42:26.960Z,70.09
2022-09-15T06:43:26.965Z,70.53
2022-09-15T06:44:26.935Z,71.67
2022-09-15T06:45:26.928Z,73.18
2022-09-15T06:46:27.039Z,73.21
2022-09-15T06:47:26.977Z,72.91
2022-09-15T06:48:27.438Z,73.01
2022-09-15T06:49:27.388Z,73.55
2022-09-15T06:50:27.432Z,73.41
2022-09-15T06:51:27.049Z,73.01
2022-09-15T06:52:26.847Z,72.30
2022-09-15T06:53:29.859Z,71.03
2022-09-15T06:54:26.843Z,71.83
2022-09-15T06:55:26.810Z,71.43
2022-09-15T06:56:26.804Z,71.13
2022-09-15T06:57:26.792Z,70.79
2022-09-15T06:58:26.796Z,70.56
2022-09-15T06:59:26.768Z,69.76
2022-09-15T07:00:26.965Z,69.65
2022-09-15T07:01:26.742Z,69.99
2022-09-15T07:02:26.961Z,70.93
2022-09-15T07:03:26.946Z,70.06
2022-09-15T07:04:26.734Z,69.96
2022-09-15T07:05:26.715Z,69.72
2022-09-15T07:06:27.422Z,69.82
2022-09-15T07:07:26.700Z,68.99
2022-09-15T07:08:26.665Z,67.38
2022-09-15T07:09:26.663Z,67.58
2022-09-15T07:10:26.687Z,66.88
2022-09-15T07:11:26.643Z,67.52
2022-09-15T07:12:26.640Z,67.61
2022-09-15T07:13:26.608Z,67.05
2022-09-15T07:14:26.664Z,68.18
2022-09-15T07:15:26.586Z,68.38
2022-09-15T07:16:26.678Z,69.02
2022-09-15T07:17:26.577Z,69.02
2022-09-15T07:18:26.552Z,69.02
2022-09-15T07:19:26.586Z,69.85
2022-09-15T07:20:26.532Z,69.65
2022-09-15T07:21:26.537Z,69.06
2022-09-15T07:22:26.507Z,69.22
2022-09-15T07:23:26.971Z,68.62
2022-09-15T07:24:26.504Z,68.92
2022-09-15T07:25:26.501Z,69.02
2022-09-15T07:26:26.460Z,68.59
2022-09-15T07:27:26.453Z,67.11
2022-09-15T07:28:26.443Z,67.49
2022-09-15T07:29:26.446Z,67.29
2022-09-15T07:30:26.420Z,67.42
2022-09-15T07:31:26.456Z,68.25
2022-09-15T07:32:26.399Z,67.95
2022-09-15T07:33:26.384Z,67.98
2022-09-15T07:34:26.461Z,68.68
2022-09-15T07:35:26.364Z,68.22
2022-09-15T07:36:26.367Z,66.42
2022-09-15T07:37:26.355Z,65.52
2022-09-15T07:38:26.345Z,66.02
2022-09-15T07:39:26.343Z,65.42
2022-09-15T07:40:26.574Z,65.45
2022-09-15T07:41:26.299Z,66.45
2022-09-15T07:42:26.294Z,66.58
2022-09-15T07:43:26.935Z,67.52
2022-09-15T07:44:26.292Z,67.32
2022-09-15T07:45:26.278Z,66.01
2022-09-15T07:46:26.274Z,67.65
2022-09-15T07:47:26.229Z,67.05
2022-09-15T07:48:26.702Z,67.82
2022-09-15T07:49:26.221Z,68.21
2022-09-15T07:50:26.194Z,68.55
2022-09-15T07:51:26.323Z,68.12
2022-09-15T07:52:26.944Z,68.82
2022-09-15T07:53:26.180Z,69.15
2022-09-15T07:54:26.171Z,68.85
2022-09-15T07:55:26.139Z,69.25
2022-09-15T07:56:26.128Z,68.95
2022-09-15T07:57:26.284Z,68.92
2022-09-15T07:58:26.108Z,68.82
2022-09-15T07:59:29.030Z,68.92
2022-09-15T08:00:26.130Z,68.92
2022-09-15T08:01:26.156Z,68.52
2022-09-15T08:02:26.125Z,68.72
2022-09-15T08:03:26.049Z,68.62
2022-09-15T08:04:26.051Z,68.72
2022-09-15T08:05:26.030Z,69.15
2022-09-15T08:06:26.016Z,69.02
2022-09-15T08:07:26.002Z,68.62
2022-09-15T08:08:26.111Z,68.21
2022-09-15T08:09:26.041Z,68.62
2022-09-15T08:10:25.973Z,68.72
2022-09-15T08:11:25.968Z,69.12
2022-09-15T08:12:25.952Z,69.22
2022-09-15T08:13:25.943Z,69.22
2022-09-15T08:14:25.999Z,68.68
2022-09-15T08:15:25.944Z,68.38
2022-09-15T08:16:25.962Z,68.35
2022-09-15T08:17:25.893Z,67.18
2022-09-15T08:18:25.886Z,66.99
2022-09-15T08:19:25.888Z,65.42
2022-09-15T08:20:25.862Z,65.39
2022-09-15T08:21:25.856Z,64.69
2022-09-15T08:22:25.844Z,64.36
2022-09-15T08:23:25.828Z,62.79
2022-09-15T08:24:25.902Z,61.99
2022-09-15T08:25:26.067Z,61.46
2022-09-15T08:26:25.798Z,61.24
2022-09-15T08:27:25.804Z,61.24
2022-09-15T08:28:25.772Z,60.53
2022-09-15T08:29:26.117Z,61.07
2022-09-15T08:30:25.795Z,61.36
2022-09-15T08:31:26.024Z,61.66
2022-09-15T08:32:25.734Z,61.26
2022-09-15T08:33:25.730Z,61.07
2022-09-15T08:34:25.783Z,61.57
2022-09-15T08:35:25.692Z,60.86
2022-09-15T08:36:25.694Z,61.16
2022-09-15T08:37:25.675Z,61.29
2022-09-15T08:38:25.685Z,61.29
2022-09-15T08:39:25.674Z,61.09
2022-09-15T08:40:25.924Z,61.69
2022-09-15T08:41:25.650Z,61.59
2022-09-15T08:42:25.737Z,61.49
2022-09-15T08:43:25.608Z,61.46
2022-09-15T08:44:26.073Z,60.83
2022-09-15T08:45:25.654Z,60.21
2022-09-15T08:46:25.654Z,59.70
2022-09-15T08:47:25.566Z,59.38
2022-09-15T08:48:25.674Z,57.95
2022-09-15T08:49:47.442Z,57.95
2022-09-15T08:50:26.533Z,57.50
2022-09-15T08:51:25.516Z,56.30
2022-09-15T08:52:25.502Z,56.73
2022-09-15T08:53:25.493Z,57.65
2022-09-15T08:54:25.497Z,58.18
2022-09-15T08:55:25.492Z,59.51
2022-09-15T08:56:25.472Z,59.56
2022-09-15T08:57:25.473Z,61.32
2022-09-15T08:58:25.436Z,62.08
2022-09-15T08:59:25.443Z,62.28
2022-09-15T09:00:25.434Z,62.94
2022-09-15T09:01:25.601Z,63.14
2022-09-15T09:02:25.410Z,63.24
2022-09-15T09:03:25.385Z,64.15
2022-09-15T09:04:25.398Z,64.15
2022-09-15T09:05:28.037Z,63.92
2022-09-15T09:06:25.354Z,64.22
2022-09-15T09:07:25.550Z,64.42
2022-09-15T09:08:25.321Z,64.42
2022-09-15T09:09:25.338Z,64.04
2022-09-15T09:10:25.336Z,64.58
2022-09-15T09:11:25.331Z,64.71
2022-09-15T09:12:25.340Z,64.91
2022-09-15T09:13:25.505Z,65.31
2022-09-15T09:14:25.261Z,65.34
2022-09-15T09:15:25.339Z,65.14
2022-09-15T09:16:26.174Z,65.34
2022-09-15T09:17:25.232Z,64.74
2022-09-15T09:18:25.966Z,65.37
2022-09-15T09:19:27.139Z,65.77
2022-09-15T09:20:25.533Z,65.91
2022-09-15T09:21:25.184Z,66.61
2022-09-15T09:22:25.180Z,66.71
2022-09-15T09:23:25.158Z,66.41
2022-09-15T09:24:25.171Z,66.11
2022-09-15T09:25:27.921Z,67.35
2022-09-15T09:26:25.165Z,67.65
2022-09-15T09:27:25.115Z,65.64
2022-09-15T09:28:25.103Z,65.73
2022-09-15T09:29:25.219Z,65.64
2022-09-15T09:30:25.092Z,65.60
2022-09-15T09:31:25.165Z,65.70
2022-09-15T09:32:25.213Z,65.80
2022-09-15T09:33:25.048Z,65.67
2022-09-15T09:34:25.037Z,65.17
2022-09-15T09:35:25.038Z,65.34
2022-09-15T09:36:25.054Z,64.84
2022-09-15T09:37:25.170Z,64.51
2022-09-15T09:38:25.975Z,63.47
2022-09-15T09:39:24.994Z,62.31
2022-09-15T09:40:24.990Z,61.78
2022-09-15T09:41:24.982Z,61.05
2022-09-15T09:42:24.979Z,60.42
2022-09-15T09:43:25.054Z,59.59
2022-09-15T09:44:24.938Z,58.89
2022-09-15T09:45:24.927Z,59.09
2022-09-15T09:46:24.975Z,58.49
2022-09-15T09:47:24.907Z,58.37
2022-09-15T09:48:24.879Z,58.59
2022-09-15T09:49:24.887Z,58.29
2022-09-15T09:50:24.856Z,58.12
2022-09-15T09:51:24.850Z,59.75
2022-09-15T09:52:24.886Z,59.92
2022-09-15T09:53:24.822Z,58.09
2022-09-15T09:54:31.649Z,58.17
2022-09-15T09:55:24.807Z,57.67
2022-09-15T09:56:25.481Z,57.87
2022-09-15T09:57:24.779Z,57.76
2022-09-15T09:58:24.764Z,57.24
2022-09-15T09:59:24.799Z,56.41
2022-09-15T10:00:24.745Z,56.46
2022-09-15T10:01:24.926Z,54.91
2022-09-15T10:02:24.790Z,54.08
2022-09-15T10:03:27.094Z,53.16
2022-09-15T10:04:25.898Z,52.86
2022-09-15T10:05:24.717Z,52.17
2022-09-15T10:06:24.678Z,52.14
2022-09-15T10:07:24.665Z,52.57
2022-09-15T10:08:24.655Z,52.59
2022-09-15T10:09:24.641Z,52.29
2022-09-15T10:10:24.650Z,52.34
2022-09-15T10:11:24.624Z,51.70
2022-09-15T10:12:24.605Z,50.85
2022-09-15T10:13:24.797Z,50.03
2022-09-15T10:14:24.621Z,50.23
2022-09-15T10:15:24.579Z,49.39
2022-09-15T10:16:24.636Z,50.01
2022-09-15T10:17:24.576Z,48.40
2022-09-15T10:18:24.572Z,47.66
2022-09-15T10:19:24.629Z,47.14
2022-09-15T10:20:24.527Z,45.89
2022-09-15T10:21:24.514Z,46.62
2022-09-15T10:22:24.500Z,47.26
2022-09-15T10:23:24.507Z,48.18
2022-09-15T10:24:24.473Z,49.91
2022-09-15T10:25:25.921Z,49.93
2022-09-15T10:26:25.461Z,49.80
2022-09-15T10:27:24.449Z,50.35
2022-09-15T10:28:24.451Z,52.39
2022-09-15T10:29:24.433Z,54.04
2022-09-15T10:30:24.998Z,54.24
2022-09-15T10:31:24.462Z,55.43
2022-09-15T10:32:25.419Z,54.58
2022-09-15T10:33:24.433Z,54.11
2022-09-15T10:34:24.406Z,53.71
2022-09-15T10:35:24.365Z,52.22
2022-09-15T10:36:24.354Z,51.59
2022-09-15T10:37:24.345Z,51.29
2022-09-15T10:38:24.371Z,51.20
2022-09-15T10:39:24.318Z,50.18
2022-09-15T10:40:24.400Z,50.48
2022-09-15T10:41:24.293Z,50.87
2022-09-15T10:42:24.316Z,50.27
2022-09-15T10:43:24.279Z,48.07
2022-09-15T10:44:24.275Z,45.06
2022-09-15T10:45:24.326Z,42.82
2022-09-15T10:46:24.239Z,43.73
2022-09-15T10:47:25.011Z,42.82
2022-09-15T10:48:24.217Z,42.82
2022-09-15T10:49:24.249Z,40.48
2022-09-15T10:50:24.196Z,41.99
2022-09-15T10:51:24.193Z,40.61
2022-09-15T10:52:24.169Z,41.33
2022-09-15T10:53:24.187Z,41.30
2022-09-15T10:54:24.349Z,39.44
2022-09-15T10:55:42.163Z,39.01
2022-09-15T10:56:25.124Z,38.34
2022-09-15T10:57:24.162Z,37.93
2022-09-15T10:58:24.103Z,37.10
2022-09-15T10:59:24.097Z,37.20
2022-09-15T11:00:24.108Z,37.81
2022-09-15T11:01:24.145Z,37.66
2022-09-15T11:02:24.153Z,38.29
2022-09-15T11:03:24.063Z,39.04
2022-09-15T11:04:24.237Z,40.82
2022-09-15T11:05:24.045Z,41.95
2022-09-15T11:06:24.049Z,43.01
2022-09-15T11:07:24.010Z,44.44
2022-09-15T11:08:24.006Z,44.56
2022-09-15T11:09:23.983Z,45.28
2022-09-15T11:10:24.389Z,45.72
2022-09-15T11:11:23.967Z,46.94
2022-09-15T11:12:28.945Z,47.16
2022-09-15T11:13:24.945Z,46.86
2022-09-15T11:14:23.927Z,47.36
2022-09-15T11:15:23.959Z,47.45
2022-09-15T11:16:23.956Z,48.16
2022-09-15T11:17:23.902Z,48.85
2022-09-15T11:18:23.880Z,48.48
2022-09-15T11:19:23.892Z,49.80
2022-09-15T11:20:23.869Z,49.90
2022-09-15T11:21:23.931Z,50.00
2022-09-15T11:22:23.851Z,49.53
2022-09-15T11:23:24.038Z,48.11
2022-09-15T11:24:23.839Z,48.01
2022-09-15T11:25:23.809Z,48.93
2022-09-15T11:26:23.799Z,48.23
2022-09-15T11:27:23.796Z,48.50
2022-09-15T11:28:23.775Z,47.96
2022-09-15T11:29:23.866Z,46.62
2022-09-15T11:30:23.752Z,45.31
2022-09-15T11:31:23.807Z,45.79
2022-09-15T11:32:23.733Z,45.51
2022-09-15T11:33:23.741Z,45.21
2022-09-15T11:34:23.711Z,46.67
2022-09-15T11:35:23.718Z,46.89
2022-09-15T11:36:23.689Z,47.69
2022-09-15T11:37:23.698Z,47.47
2022-09-15T11:38:23.781Z,46.75
2022-09-15T11:39:23.676Z,46.42
2022-09-15T11:40:23.742Z,47.14
2022-09-15T11:41:23.640Z,47.86
2022-09-15T11:42:23.627Z,46.92
2022-09-15T11:43:23.653Z,46.98
2022-09-15T11:44:23.891Z,45.86
2022-09-15T11:45:23.605Z,46.20
2022-09-15T11:46:23.643Z,46.33
2022-09-15T11:47:23.577Z,46.65
2022-09-15T11:48:23.556Z,47.69
2022-09-15T11:49:23.618Z,47.99
2022-09-15T11:50:23.673Z,47.91
2022-09-15T11:51:23.630Z,48.63
2022-09-15T11:52:23.536Z,48.05
2022-09-15T11:53:23.526Z,48.48
2022-09-15T11:54:23.489Z,48.52
2022-09-15T11:55:23.555Z,49.77
2022-09-15T11:56:23.469Z,50.99
2022-09-15T11:57:23.479Z,52.02
2022-09-15T11:58:23.445Z,52.74
2022-09-15T11:59:23.441Z,53.27
2022-09-15T12:00:23.442Z,54.77
2022-09-15T12:01:23.583Z,54.39
2022-09-15T12:02:23.532Z,55.32
2022-09-15T12:03:23.514Z,55.85
2022-09-15T12:04:23.377Z,56.85
2022-09-15T12:05:23.562Z,56.65
2022-09-15T12:06:23.387Z,57.26
2022-09-15T12:07:23.350Z,57.15
2022-09-15T12:08:23.337Z,56.45
2022-09-15T12:09:23.346Z,57.46
2022-09-15T12:10:24.428Z,56.45
2022-09-15T12:11:23.311Z,56.63
2022-09-15T12:12:26.960Z,56.52
2022-09-15T12:13:23.284Z,55.93
2022-09-15T12:14:26.532Z,55.80
2022-09-15T12:15:23.289Z,55.07
2022-09-15T12:16:23.295Z,54.17
2022-09-15T12:17:23.243Z,53.05
2022-09-15T12:18:38.093Z,52.32
2022-09-15T12:19:24.236Z,53.09
2022-09-15T12:20:23.202Z,52.59
2022-09-15T12:21:23.191Z,52.69
2022-09-15T12:22:23.192Z,52.39
2022-09-15T12:23:23.170Z,52.89
2022-09-15T12:24:23.256Z,53.09
2022-09-15T12:25:23.187Z,52.80
2022-09-15T12:26:23.159Z,53.52
2022-09-15T12:27:23.125Z,53.74
2022-09-15T12:28:23.212Z,54.47
2022-09-15T12:29:23.242Z,54.90
2022-09-15T12:30:24.041Z,55.90
2022-09-15T12:31:23.367Z,55.52
2022-09-15T12:32:23.066Z,56.43
2022-09-15T12:33:23.067Z,56.96
2022-09-15T12:34:23.062Z,56.20
2022-09-15T12:35:23.094Z,54.94
2022-09-15T12:36:23.019Z,54.52
2022-09-15T12:37:23.060Z,54.17
2022-09-15T12:38:23.020Z,52.94
2022-09-15T12:39:22.991Z,52.32
2022-09-15T12:40:23.050Z,52.92
2022-09-15T12:41:22.999Z,52.09
2022-09-15T12:42:23.072Z,51.77
2022-09-15T12:43:23.055Z,51.17
2022-09-15T12:44:22.957Z,51.95
2022-09-15T12:45:23.006Z,50.43
2022-09-15T12:46:23.034Z,49.83
2022-09-15T12:47:22.910Z,48.53
2022-09-15T12:48:22.887Z,48.13
2022-09-15T12:49:22.901Z,48.11
2022-09-15T12:50:22.876Z,48.31
2022-09-15T12:51:22.867Z,48.50
2022-09-15T12:52:22.872Z,48.38